createdAt,value
2022-09-17T00:01:53.450Z,65.10
2022-09-17T00:04:55.100Z,65.19
2022-09-17T00:07:57.246Z,65.18
2022-09-17T00:11:26.126Z,65.15
2022-09-17T00:14:27.576Z,65.15
2022-09-17T00:17:29.115Z,65.12
2022-09-17T00:20:31.106Z,65.26
2022-09-17T00:23:32.618Z,65.18
2022-09-17T00:26:34.535Z,65.22
2022-09-17T00:29:36.228Z,65.21
2022-09-17T00:32:37.723Z,65.10
2022-09-17T00:35:39.599Z,64.81
2022-09-17T00:38:41.266Z,64.86
2022-09-17T00:41:44.066Z,64.92
2022-09-17T00:44:50.293Z,65.07
2022-09-17T00:48:02.656Z,65.11
2022-09-17T00:51:08.425Z,65.01
2022-09-17T00:54:11.197Z,65.04
2022-09-17T00:57:12.980Z,65.05
2022-09-17T01:00:15.967Z,65.05
2022-09-17T01:03:17.694Z,65.02
2022-09-17T01:06:33.650Z,64.93
2022-09-17T01:09:53.870Z,64.95
2022-09-17T01:13:01.417Z,65.13
2022-09-17T01:16:25.751Z,65.26
2022-09-17T01:19:33.099Z,65.19
2022-09-17T01:22:52.796Z,65.19
2022-09-17T01:26:12.845Z,65.20
2022-09-17T01:29:45.087Z,65.04
2022-09-17T01:32:55.882Z,65.09
2022-09-17T01:36:09.244Z,65.04
2022-09-17T01:39:29.505Z,65.10
2022-09-17T01:42:34.112Z,65.15
2022-09-17T01:45:42.680Z,65.04
2022-09-17T01:48:48.821Z,65.11
2022-09-17T01:51:51.943Z,65.10
2022-09-17T01:54:57.810Z,65.11
2022-09-17T01:58:06.865Z,64.96
2022-09-17T02:01:11.676Z,64.94
2022-09-17T02:04:24.850Z,65.19
2022-09-17T02:07:30.380Z,64.99
2022-09-17T02:10:37.778Z,64.96
2022-09-17T02:13:45.175Z,64.95
2022-09-17T02:16:54.699Z,64.92
2022-09-17T02:19:56.281Z,64.85
2022-09-17T02:23:05.528Z,64.81
2022-09-17T02:26:11.426Z,64.90
2022-09-17T02:29:27.004Z,64.87
2022-09-17T02:32:28.580Z,64.93
2022-09-17T02:35:31.460Z,64.88
2022-09-17T02:38:33.002Z,64.70
2022-09-17T02:41:53.688Z,64.89
2022-09-17T02:45:04.412Z,64.71
2022-09-17T02:48:16.440Z,64.60
2022-09-17T02:51:33.475Z,64.73
2022-09-17T02:54:43.155Z,64.66
2022-09-17T02:58:18.166Z,64.61
2022-09-17T03:01:40.320Z,64.69
2022-09-17T03:04:41.973Z,64.75
2022-09-17T03:07:43.559Z,64.76
2022-09-17T03:10:48.290Z,64.84
2022-09-17T03:13:49.911Z,64.74
2022-09-17T03:16:51.358Z,64.67
2022-09-17T03:19:53.053Z,64.95
2022-09-17T03:22:54.570Z,64.81
2022-09-17T03:25:56.083Z,64.77
2022-09-17T03:28:58.286Z,64.80
2022-09-17T03:32:00.419Z,64.93
2022-09-17T03:35:01.946Z,64.72
2022-09-17T03:38:03.712Z,64.90
2022-09-17T03:41:06.936Z,65.00
2022-09-17T03:44:09.885Z,65.17
2022-09-17T03:47:11.921Z,65.15
2022-09-17T03:50:13.424Z,65.14
2022-09-17T03:53:15.704Z,65.12
2022-09-17T03:56:17.366Z,65.10
2022-09-17T03:59:19.098Z,65.23
2022-09-17T04:02:20.733Z,65.33
2022-09-17T04:05:23.003Z,65.32
2022-09-17T04:08:24.439Z,65.26
2022-09-17T04:11:26.585Z,65.38
2022-09-17T04:14:28.197Z,65.38
2022-09-17T04:17:29.700Z,65.36
2022-09-17T04:20:31.266Z,65.40
2022-09-17T04:23:32.728Z,65.34
2022-09-17T04:26:34.219Z,65.23
2022-09-17T04:29:35.730Z,65.33
2022-09-17T04:32:37.529Z,65.34
2022-09-17T04:35:39.223Z,65.36
2022-09-17T04:38:40.849Z,65.15
2022-09-17T04:41:42.604Z,65.48
2022-09-17T04:44:44.063Z,65.54
2022-09-17T04:47:45.611Z,65.78
2022-09-17T04:50:47.076Z,65.74
2022-09-17T04:53:48.560Z,65.71
2022-09-17T04:56:50.595Z,65.69
2022-09-17T04:59:52.197Z,65.59
2022-09-17T05:02:55.139Z,65.44
2022-09-17T05:05:56.989Z,65.69
2022-09-17T05:08:58.688Z,65.50
2022-09-17T05:12:00.200Z,65.58
2022-09-17T05:15:01.788Z,65.70
2022-09-17T05:18:03.349Z,65.84
2022-09-17T05:21:05.080Z,65.94
2022-09-17T05:24:06.830Z,65.61
2022-09-17T05:27:08.366Z,65.78
2022-09-17T05:30:11.142Z,65.81
2022-09-17T05:33:12.696Z,65.60
2022-09-17T05:36:14.218Z,65.74
2022-09-17T05:39:15.744Z,65.77
2022-09-17T05:42:17.474Z,65.92
2022-09-17T05:45:18.972Z,66.00
2022-09-17T05:48:20.589Z,66.14
2022-09-17T05:51:22.201Z,66.11
2022-09-17T05:54:23.684Z,66.17
2022-09-17T05:57:28.412Z,66.10
2022-09-17T06:00:30.665Z,66.12
2022-09-17T06:03:32.499Z,66.07
2022-09-17T06:06:35.951Z,66.06
2022-09-17T06:09:37.919Z,66.20
2022-09-17T06:12:39.475Z,66.22
2022-09-17T06:15:40.975Z,66.11
2022-09-17T06:18:42.494Z,66.10
2022-09-17T06:21:44.033Z,65.95
2022-09-17T06:24:45.739Z,66.08
2022-09-17T06:27:47.191Z,66.22
2022-09-17T06:30:48.929Z,65.96
2022-09-17T06:33:50.601Z,65.96
2022-09-17T06:36:52.075Z,66.52
2022-09-17T06:39:53.978Z,66.40
2022-09-17T06:42:59.145Z,66.17
2022-09-17T06:46:05.432Z,66.04
2022-09-17T06:49:06.994Z,66.07
2022-09-17T06:52:08.917Z,66.05
2022-09-17T06:55:10.361Z,66.24
2022-09-17T06:58:11.908Z,66.06
2022-09-17T07:01:14.056Z,66.26
2022-09-17T07:04:18.186Z,66.23
2022-09-17T07:07:19.704Z,66.20
2022-09-17T07:10:22.814Z,66.13
2022-09-17T07:13:25.403Z,66.10
2022-09-17T07:16:27.433Z,65.95
2022-09-17T07:19:28.984Z,65.96
2022-09-17T07:22:30.616Z,66.00
2022-09-17T07:25:32.313Z,65.82
2022-09-17T07:28:34.291Z,65.76
2022-09-17T07:31:36.265Z,65.94
2022-09-17T07:34:37.866Z,66.09
2022-09-17T07:37:39.920Z,65.86
2022-09-17T07:40:41.439Z,65.93
2022-09-17T07:43:43.290Z,66.06
2022-09-17T07:46:45.040Z,66.04
2022-09-17T07:49:46.671Z,65.69
2022-09-17T07:52:48.581Z,65.73
2022-09-17T07:55:55.318Z,65.62
2022-09-17T07:58:57.292Z,65.29
2022-09-17T08:01:59.526Z,65.10
2022-09-17T08:05:01.342Z,64.93
2022-09-17T08:08:03.196Z,64.82
2022-09-17T08:11:07.883Z,64.96
2022-09-17T08:14:15.189Z,64.96
2022-09-17T08:17:16.872Z,64.95
2022-09-17T08:20:19.474Z,64.70
2022-09-17T08:23:21.190Z,64.76
2022-09-17T08:26:24.287Z,64.85
2022-09-17T08:29:25.862Z,64.83
2022-09-17T08:32:29.232Z,64.79
2022-09-17T08:35:30.980Z,64.48
2022-09-17T08:38:39.412Z,64.47
2022-09-17T08:41:53.050Z,64.49
2022-09-17T08:45:00.679Z,64.44
2022-09-17T08:48:04.558Z,64.53
2022-09-17T08:51:29.700Z,64.49
2022-09-17T08:54:56.707Z,64.29
2022-09-17T08:58:18.865Z,64.13
2022-09-17T09:01:23.801Z,64.13
2022-09-17T09:04:47.757Z,64.16
2022-09-17T09:07:54.547Z,64.17
2022-09-17T09:11:00.368Z,64.00
2022-09-17T09:14:24.000Z,64.06
2022-09-17T09:17:43.242Z,64.10
2022-09-17T09:20:55.079Z,63.90
2022-09-17T09:24:09.971Z,63.89
2022-09-17T09:27:18.767Z,63.97
2022-09-17T09:30:23.100Z,64.07
2022-09-17T09:33:30.415Z,64.02
2022-09-17T09:36:33.028Z,64.15
2022-09-17T09:39:41.277Z,64.25
2022-09-17T09:42:45.681Z,64.15
2022-09-17T09:46:00.781Z,64.07
2022-09-17T09:49:13.332Z,64.02
2022-09-17T09:52:32.084Z,64.07
2022-09-17T09:55:58.045Z,64.01
2022-09-17T09:59:00.912Z,63.94
2022-09-17T10:02:05.439Z,63.92
2022-09-17T10:05:08.341Z,63.75
2022-09-17T10:08:14.454Z,63.77
2022-09-17T10:11:22.331Z,63.85
2022-09-17T10:14:26.489Z,63.92
2022-09-17T10:17:29.136Z,63.94
2022-09-17T10:20:31.318Z,63.93
2022-09-17T10:23:37.935Z,63.91
2022-09-17T10:26:39.671Z,63.89
2022-09-17T10:29:46.881Z,63.84
2022-09-17T10:33:20.536Z,63.85
2022-09-17T10:36:38.047Z,63.80
2022-09-17T10:39:44.473Z,63.93
2022-09-17T10:42:47.354Z,64.02
2022-09-17T10:45:59.065Z,64.13
2022-09-17T10:49:10.230Z,64.08
2022-09-17T10:52:14.662Z,64.10
2022-09-17T10:55:36.824Z,64.24
2022-09-17T10:59:00.275Z,64.38
2022-09-17T11:02:24.646Z,64.28
2022-09-17T11:05:40.209Z,64.31
2022-09-17T11:08:50.818Z,64.23
2022-09-17T11:12:13.643Z,64.14
2022-09-17T11:15:21.291Z,64.06
2022-09-17T11:18:50.625Z,64.07
2022-09-17T11:22:50.612Z,64.12
2022-09-17T11:26:00.900Z,64.18
2022-09-17T11:29:08.660Z,64.06
2022-09-17T11:32:38.116Z,64.08
2022-09-17T11:35:55.913Z,64.21
2022-09-17T11:39:07.052Z,64.29
2022-09-17T11:42:17.491Z,64.40
2022-09-17T11:45:26.533Z,64.36
2022-09-17T11:48:47.354Z,64.41
2022-09-17T11:51:56.224Z,64.37
2022-09-17T11:55:45.240Z,64.39
2022-09-17T11:59:11.761Z,64.36
2022-09-17T12:02:21.016Z,64.50
2022-09-17T12:05:54.659Z,64.39
2022-09-17T12:09:05.772Z,64.34
2022-09-17T12:12:47.826Z,64.34
2022-09-17T12:15:53.175Z,64.31
2022-09-17T12:19:11.405Z,64.42
2022-09-17T12:22:20.417Z,64.33
2022-09-17T12:25:25.661Z,64.16
2022-09-17T12:28:38.899Z,64.00
2022-09-17T12:31:52.992Z,63.92
2022-09-17T12:35:20.014Z,63.88
2022-09-17T12:38:46.020Z,63.83
2022-09-17T12:42:12.417Z,63.81
2022-09-17T12:45:13.811Z,63.80
2022-09-17T12:48:43.929Z,63.85
2022-09-17T12:51:59.349Z,63.73
2022-09-17T12:55:48.856Z,63.63
2022-09-17T12:59:15.423Z,63.83
2022-09-17T13:02:40.181Z,63.92
2022-09-17T13:06:14.509Z,63.81
2022-09-17T13:23:59.859Z,64.04
2022-09-17T13:27:05.445Z,64.67
2022-09-17T13:30:11.424Z,64.44
2022-09-17T13:33:50.628Z,64.73
2022-09-17T13:37:15.735Z,64.64
2022-09-17T13:40:27.903Z,64.78
2022-09-17T13:43:30.952Z,64.88
2022-09-17T13:46:36.759Z,65.17
2022-09-17T13:50:02.625Z,65.64
2022-09-17T13:53:21.493Z,65.26
2022-09-17T13:56:38.683Z,64.94
2022-09-17T13:59:54.449Z,65.07
2022-09-17T14:03:28.996Z,65.28
2022-09-17T14:06:34.623Z,65.12
2022-09-17T14:09:56.327Z,64.95
2022-09-17T14:13:23.509Z,64.86
2022-09-17T14:16:29.301Z,65.10
2022-09-17T14:19:46.676Z,65.09
2022-09-17T14:22:57.350Z,65.56
2022-09-17T14:26:05.156Z,65.48
2022-09-17T14:29:13.895Z,65.34
2022-09-17T14:32:21.660Z,65.31
2022-09-17T14:35:33.663Z,65.16
2022-09-17T14:39:04.804Z,65.12
2022-09-17T14:42:16.834Z,65.06
2022-09-17T14:45:33.483Z,64.87
2022-09-17T14:48:37.397Z,65.14
2022-09-17T14:51:40.746Z,64.83
2022-09-17T14:54:44.776Z,64.59
2022-09-17T14:57:55.757Z,64.53
2022-09-17T15:00:59.120Z,64.20
2022-09-17T15:04:20.532Z,63.92
2022-09-17T15:07:23.657Z,63.83
2022-09-17T15:10:27.310Z,63.77
2022-09-17T15:13:40.328Z,63.82
2022-09-17T15:16:55.186Z,63.98
2022-09-17T15:19:58.878Z,64.04
2022-09-17T15:23:13.953Z,64.17
2022-09-17T15:26:22.755Z,64.36
2022-09-17T15:29:29.266Z,64.35
2022-09-17T15:32:36.161Z,64.42
2022-09-17T15:35:39.690Z,64.55
2022-09-17T15:38:42.914Z,64.69
2022-09-17T15:41:56.997Z,64.75
2022-09-17T15:45:19.739Z,64.85
2022-09-17T15:48:39.533Z,64.84
2022-09-17T15:51:42.419Z,64.94
2022-09-17T15:54:45.305Z,64.99
2022-09-17T15:57:48.243Z,65.13
2022-09-17T16:01:15.792Z,65.19
2022-09-17T16:04:22.803Z,65.32
2022-09-17T16:07:30.533Z,65.41
2022-09-17T16:10:33.458Z,65.57
2022-09-17T16:13:36.323Z,65.72
2022-09-17T16:16:39.509Z,65.84
2022-09-17T16:19:42.594Z,65.86
2022-09-17T16:22:48.375Z,65.99
2022-09-17T16:25:52.234Z,66.05
2022-09-17T16:28:59.989Z,66.25
2022-09-17T16:32:03.009Z,66.44
2022-09-17T16:35:07.058Z,66.46
2022-09-17T16:38:11.910Z,66.66
2022-09-17T16:41:14.941Z,66.87
2022-09-17T16:44:18.314Z,66.85
2022-09-17T16:47:21.930Z,66.94
2022-09-17T16:50:25.418Z,67.12
2022-09-17T16:53:28.327Z,67.24
2022-09-17T16:56:31.920Z,67.32
2022-09-17T16:59:34.825Z,67.49
2022-09-17T17:02:37.790Z,67.43
2022-09-17T17:05:41.441Z,67.56
2022-09-17T17:08:44.373Z,67.61
2022-09-17T17:11:47.235Z,67.65
2022-09-17T17:14:52.304Z,67.68
2022-09-17T17:17:55.161Z,67.56
2022-09-17T17:21:08.851Z,67.49
2022-09-17T17:24:13.757Z,67.25
2022-09-17T17:27:16.587Z,67.03
2022-09-17T17:30:21.213Z,66.96
2022-09-17T17:33:24.767Z,66.77
2022-09-17T17:36:28.061Z,66.71
2022-09-17T17:39:31.093Z,66.55
2022-09-17T17:42:38.153Z,66.60
2022-09-17T17:45:41.387Z,66.41
2022-09-17T17:48:44.389Z,66.33
2022-09-17T17:51:48.773Z,66.23
2022-09-17T17:54:51.777Z,66.16
2022-09-17T17:58:00.889Z,66.11
2022-09-17T18:01:16.199Z,66.14
2022-09-17T18:04:19.930Z,66.14
2022-09-17T18:07:22.846Z,66.20
2022-09-17T18:10:26.254Z,66.13
2022-09-17T18:13:29.420Z,66.15
2022-09-17T18:16:32.817Z,66.13
2022-09-17T18:19:36.746Z,66.20
2022-09-17T18:22:40.046Z,66.21
2022-09-17T18:25:51.864Z,66.23
2022-09-17T18:28:56.008Z,66.17
2022-09-17T18:31:58.900Z,66.14
2022-09-17T18:35:02.308Z,66.20
2022-09-17T18:38:08.895Z,66.32
2022-09-17T18:41:14.037Z,66.37
2022-09-17T18:44:22.104Z,66.36
2022-09-17T18:47:30.723Z,66.20
2022-09-17T18:50:35.474Z,66.45
2022-09-17T18:53:39.298Z,66.48
2022-09-17T18:56:44.501Z,66.66
2022-09-17T18:59:48.469Z,66.65
2022-09-17T19:02:51.841Z,66.67
2022-09-17T19:06:02.027Z,66.66
2022-09-17T19:09:06.542Z,66.81
2022-09-17T19:12:10.263Z,66.71
2022-09-17T19:15:13.525Z,66.82
2022-09-17T19:18:17.673Z,66.68
2022-09-17T19:21:21.926Z,66.77
2022-09-17T19:24:25.878Z,66.75
2022-09-17T19:27:31.249Z,66.76
2022-09-17T19:30:36.971Z,66.70
2022-09-17T19:33:41.861Z,66.88
2022-09-17T19:36:45.482Z,66.83
2022-09-17T19:39:49.135Z,66.70
2022-09-17T19:42:54.660Z,66.67
2022-09-17T19:46:05.480Z,66.59
2022-09-17T19:49:10.151Z,66.47
2022-09-17T19:52:14.278Z,66.33
2022-09-17T19:55:17.555Z,66.36
2022-09-17T19:58:20.936Z,66.43
2022-09-17T20:01:24.045Z,66.58
2022-09-17T20:04:27.136Z,66.44
2022-09-17T20:07:30.701Z,66.49
2022-09-17T20:10:37.854Z,66.36
2022-09-17T20:13:42.350Z,66.55
2022-09-17T20:16:47.263Z,66.59
2022-09-17T20:19:50.439Z,66.74
2022-09-17T20:22:56.074Z,66.63
2022-09-17T20:25:59.098Z,66.69
2022-09-17T20:29:03.182Z,66.68
2022-09-17T20:32:06.365Z,66.90
2022-09-17T20:35:09.709Z,66.95
2022-09-17T20:41:39.063Z,67.33
2022-09-17T20:44:41.992Z,67.07
2022-09-17T20:47:44.960Z,66.96
2022-09-17T20:50:55.780Z,67.06
2022-09-17T20:53:58.758Z,67.11
2022-09-17T20:57:01.886Z,67.02
2022-09-17T21:00:17.650Z,66.78
2022-09-17T21:03:23.009Z,66.83
2022-09-17T21:06:32.863Z,66.80
2022-09-17T21:09:41.859Z,66.90
2022-09-17T21:12:44.901Z,66.95
2022-09-17T21:15:58.816Z,66.90
2022-09-17T21:19:05.440Z,66.88
2022-09-17T21:22:08.328Z,67.06
2022-09-17T21:25:11.209Z,66.81
2022-09-17T21:28:14.053Z,67.00
2022-09-17T21:31:22.815Z,67.14
2022-09-17T21:34:25.929Z,67.14
2022-09-17T21:37:28.816Z,67.15
2022-09-17T21:40:31.753Z,67.25
2022-09-17T21:43:36.101Z,67.51
2022-09-17T21:46:40.838Z,67.27
2022-09-17T21:49:44.501Z,67.53
2022-09-17T21:52:47.467Z,67.58
2022-09-17T21:55:50.348Z,67.35
2022-09-17T21:58:55.698Z,67.60
2022-09-17T22:01:59.047Z,67.75
2022-09-17T22:05:02.205Z,67.72
2022-09-17T22:08:05.056Z,67.85
2022-09-17T22:11:13.845Z,67.91
2022-09-17T22:14:21.559Z,67.95
2022-09-17T22:17:24.411Z,68.10
2022-09-17T22:20:30.065Z,68.05
2022-09-17T22:23:33.007Z,68.12
2022-09-17T22:26:39.075Z,68.13
2022-09-17T22:29:41.863Z,68.16
2022-09-17T22:32:44.740Z,68.19
2022-09-17T22:35:47.623Z,68.32
2022-09-17T22:38:58.604Z,68.28
2022-09-17T22:42:01.829Z,68.33
2022-09-17T22:45:05.074Z,68.26
2022-09-17T22:48:07.996Z,68.43
2022-09-17T22:51:11.682Z,68.51
2022-09-17T22:54:16.815Z,68.40
2022-09-17T22:57:19.733Z,68.46
2022-09-17T23:00:22.766Z,68.51
2022-09-17T23:03:26.959Z,68.65
2022-09-17T23:06:32.206Z,68.55
2022-09-17T23:09:35.095Z,68.47
2022-09-17T23:12:37.934Z,68.46
2022-09-17T23:15:40.906Z,68.36
2022-09-17T23:18:43.828Z,68.66
2022-09-17T23:21:47.075Z,68.48
2022-09-17T23:24:50.082Z,68.43
2022-09-17T23:27:55.555Z,68.49
2022-09-17T23:30:58.440Z,68.46
2022-09-17T23:34:01.868Z,68.38
2022-09-17T23:37:04.701Z,68.37
2022-09-17T23:40:08.253Z,68.14
2022-09-17T23:43:11.209Z,68.38
2022-09-17T23:46:14.775Z,68.37
2022-09-17T23:49:17.917Z,68.11
2022-09-17T23:52:20.737Z,68.20
2022-09-17T23:55:23.689Z,68.14
2022-09-17T23:58:30.938Z,67.97
